sensor_id;sensor_type;location;lat;lon;timestamp;temperature;humidity
4374;DHT22;2201;51.100;6.814;2022-08-01T00:01:59;21.80;98.20
4374;DHT22;2201;51.100;6.814;2022-08-01T00:04:26;21.80;98.20
4374;DHT22;2201;51.100;6.814;2022-08-01T00:06:53;21.80;98.20
4374;DHT22;2201;51.100;6.814;2022-08-01T00:09:19;21.80;98.20
4374;DHT22;2201;51.100;6.814;2022-08-01T00:11:46;21.80;98.20
4374;DHT22;2201;51.100;6.814;2022-08-01T00:14:15;21.80;98.20
4374;DHT22;2201;51.100;6.814;2022-08-01T00:16:41;21.80;98.20
4374;DHT22;2201;51.100;6.814;2022-08-01T00:19:08;21.80;98.20
4374;DHT22;2201;51.100;6.814;2022-08-01T00:21:35;21.70;98.20
4374;DHT22;2201;51.100;6.814;2022-08-01T00:24:02;21.70;98.20
4374;DHT22;2201;51.100;6.814;2022-08-01T00:26:29;21.60;98.20
4374;DHT22;2201;51.100;6.814;2022-08-01T00:28:56;21.60;98.20
4374;DHT22;2201;51.100;6.814;2022-08-01T00:31:24;21.60;98.20
4374;DHT22;2201;51.100;6.814;2022-08-01T00:33:51;21.60;98.20
4374;DHT22;2201;51.100;6.814;2022-08-01T00:36:18;21.60;98.20
4374;DHT22;2201;51.100;6.814;2022-08-01T00:38:45;21.60;98.20
4374;DHT22;2201;51.100;6.814;2022-08-01T00:41:12;21.60;98.20
4374;DHT22;2201;51.100;6.814;2022-08-01T00:43:38;21.60;98.20
4374;DHT22;2201;51.100;6.814;2022-08-01T00:46:05;21.70;98.20
4374;DHT22;2201;51.100;6.814;2022-08-01T00:48:33;21.70;98.20
4374;DHT22;2201;51.100;6.814;2022-08-01T00:51:01;21.70;98.20
4374;DHT22;2201;51.100;6.814;2022-08-01T00:53:28;21.70;98.20
4374;DHT22;2201;51.100;6.814;2022-08-01T00:55:56;21.70;98.20
4374;DHT22;2201;51.100;6.814;2022-08-01T00:58:24;21.60;98.20
4374;DHT22;2201;51.100;6.814;2022-08-01T01:00:51;21.60;98.20
4374;DHT22;2201;51.100;6.814;2022-08-01T01:03:18;21.60;98.20
4374;DHT22;2201;51.100;6.814;2022-08-01T01:05:51;21.50;98.20
4374;DHT22;2201;51.100;6.814;2022-08-01T01:08:26;21.50;98.20
4374;DHT22;2201;51.100;6.814;2022-08-01T01:10:57;21.50;98.20
4374;DHT22;2201;51.100;6.814;2022-08-01T01:13:33;21.40;98.20
4374;DHT22;2201;51.100;6.814;2022-08-01T01:16:06;21.40;98.20
4374;DHT22;2201;51.100;6.814;2022-08-01T01:18:38;21.30;98.20
4374;DHT22;2201;51.100;6.814;2022-08-01T01:21:24;21.40;98.20
4374;DHT22;2201;51.100;6.814;2022-08-01T01:24:00;21.30;98.20
4374;DHT22;2201;51.100;6.814;2022-08-01T01:26:39;21.40;98.20
4374;DHT22;2201;51.100;6.814;2022-08-01T01:29:13;21.40;98.20
4374;DHT22;2201;51.100;6.814;2022-08-01T01:31:46;21.40;98.20
4374;DHT22;2201;51.100;6.814;2022-08-01T01:34:17;21.40;98.20
4374;DHT22;2201;51.100;6.814;2022-08-01T01:36:46;21.40;98.20
4374;DHT22;2201;51.100;6.814;2022-08-01T01:39:14;21.40;98.20
4374;DHT22;2201;51.100;6.814;2022-08-01T01:41:43;21.30;98.20
4374;DHT22;2201;51.100;6.814;2022-08-01T01:44:12;21.30;98.20
4374;DHT22;2201;51.100;6.814;2022-08-01T01:46:40;21.30;98.20
4374;DHT22;2201;51.100;6.814;2022-08-01T01:49:08;21.30;98.20
4374;DHT22;2201;51.100;6.814;2022-08-01T01:51:38;21.30;98.20
4374;DHT22;2201;51.100;6.814;2022-08-01T01:54:05;21.30;98.20
4374;DHT22;2201;51.100;6.814;2022-08-01T01:56:35;21.30;98.20
4374;DHT22;2201;51.100;6.814;2022-08-01T01:59:18;21.30;98.20
4374;DHT22;2201;51.100;6.814;2022-08-01T02:01:47;21.30;98.20
4374;DHT22;2201;51.100;6.814;2022-08-01T02:04:15;21.30;98.20
4374;DHT22;2201;51.100;6.814;2022-08-01T02:06:43;21.30;98.20
4374;DHT22;2201;51.100;6.814;2022-08-01T02:09:11;21.30;98.20
4374;DHT22;2201;51.100;6.814;2022-08-01T02:11:41;21.30;98.20
4374;DHT22;2201;51.100;6.814;2022-08-01T02:14:09;21.30;98.20
4374;DHT22;2201;51.100;6.814;2022-08-01T02:16:40;21.20;98.20
4374;DHT22;2201;51.100;6.814;2022-08-01T02:19:07;21.20;98.20
4374;DHT22;2201;51.100;6.814;2022-08-01T02:21:38;21.20;98.20
4374;DHT22;2201;51.100;6.814;2022-08-01T02:24:12;21.20;98.20
4374;DHT22;2201;51.100;6.814;2022-08-01T02:26:44;21.20;98.20
4374;DHT22;2201;51.100;6.814;2022-08-01T02:29:16;21.20;98.20
4374;DHT22;2201;51.100;6.814;2022-08-01T02:31:48;21.20;98.20
4374;DHT22;2201;51.100;6.814;2022-08-01T02:34:19;21.20;98.20
4374;DHT22;2201;51.100;6.814;2022-08-01T02:36:46;21.20;98.20
4374;DHT22;2201;51.100;6.814;2022-08-01T02:39:17;21.20;98.20
4374;DHT22;2201;51.100;6.814;2022-08-01T02:41:48;21.30;98.20
4374;DHT22;2201;51.100;6.814;2022-08-01T02:44:23;21.30;98.20
4374;DHT22;2201;51.100;6.814;2022-08-01T02:46:54;21.30;98.20
4374;DHT22;2201;51.100;6.814;2022-08-01T02:49:24;21.30;98.20
4374;DHT22;2201;51.100;6.814;2022-08-01T02:51:54;21.30;98.20
4374;DHT22;2201;51.100;6.814;2022-08-01T02:54:22;21.30;98.20
4374;DHT22;2201;51.100;6.814;2022-08-01T02:56:50;21.30;98.20
4374;DHT22;2201;51.100;6.814;2022-08-01T02:59:19;21.30;98.20
4374;DHT22;2201;51.100;6.814;2022-08-01T03:01:52;21.30;98.20
4374;DHT22;2201;51.100;6.814;2022-08-01T03:04:21;21.30;98.20
4374;DHT22;2201;51.100;6.814;2022-08-01T03:06:48;21.30;98.20
4374;DHT22;2201;51.100;6.814;2022-08-01T03:09:17;21.30;98.20
4374;DHT22;2201;51.100;6.814;2022-08-01T03:11:47;21.20;98.20
4374;DHT22;2201;51.100;6.814;2022-08-01T03:14:16;21.30;98.20
4374;DHT22;2201;51.100;6.814;2022-08-01T03:16:45;21.20;98.20
4374;DHT22;2201;51.100;6.814;2022-08-01T03:19:14;21.20;98.20
4374;DHT22;2201;51.100;6.814;2022-08-01T03:21:43;21.20;98.20
4374;DHT22;2201;51.100;6.814;2022-08-01T03:24:11;21.20;98.20
4374;DHT22;2201;51.100;6.814;2022-08-01T03:26:40;21.30;98.20
4374;DHT22;2201;51.100;6.814;2022-08-01T03:29:12;21.20;98.20
4374;DHT22;2201;51.100;6.814;2022-08-01T03:31:40;21.30;98.20
4374;DHT22;2201;51.100;6.814;2022-08-01T03:34:09;21.30;98.20
4374;DHT22;2201;51.100;6.814;2022-08-01T03:36:44;21.30;98.20
4374;DHT22;2201;51.100;6.814;2022-08-01T03:39:12;21.30;98.20
4374;DHT22;2201;51.100;6.814;2022-08-01T03:41:46;21.30;98.20
4374;DHT22;2201;51.100;6.814;2022-08-01T03:44:15;21.30;98.20
4374;DHT22;2201;51.100;6.814;2022-08-01T03:46:46;21.30;98.20
4374;DHT22;2201;51.100;6.814;2022-08-01T03:49:17;21.30;98.20
4374;DHT22;2201;51.100;6.814;2022-08-01T03:51:49;21.30;98.20
4374;DHT22;2201;51.100;6.814;2022-08-01T03:54:21;21.30;98.20
4374;DHT22;2201;51.100;6.814;2022-08-01T03:56:49;21.30;98.20
4374;DHT22;2201;51.100;6.814;2022-08-01T03:59:17;21.30;98.20
4374;DHT22;2201;51.100;6.814;2022-08-01T04:01:45;21.30;98.20
4374;DHT22;2201;51.100;6.814;2022-08-01T04:04:13;21.30;98.20
4374;DHT22;2201;51.100;6.814;2022-08-01T04:06:41;21.30;98.20
4374;DHT22;2201;51.100;6.814;2022-08-01T04:09:11;21.30;98.20
4374;DHT22;2201;51.100;6.814;2022-08-01T04:11:38;21.20;98.20
4374;DHT22;2201;51.100;6.814;2022-08-01T04:14:06;21.20;98.20
4374;DHT22;2201;51.100;6.814;2022-08-01T04:16:33;21.20;98.20
4374;DHT22;2201;51.100;6.814;2022-08-01T04:19:00;21.20;98.20
4374;DHT22;2201;51.100;6.814;2022-08-01T04:21:28;21.20;98.20
4374;DHT22;2201;51.100;6.814;2022-08-01T04:24:01;21.20;98.20
4374;DHT22;2201;51.100;6.814;2022-08-01T04:26:33;21.20;98.20
4374;DHT22;2201;51.100;6.814;2022-08-01T04:29:02;21.20;98.20
4374;DHT22;2201;51.100;6.814;2022-08-01T04:31:30;21.20;98.20
4374;DHT22;2201;51.100;6.814;2022-08-01T04:34:01;21.20;98.20
4374;DHT22;2201;51.100;6.814;2022-08-01T04:36:30;21.20;98.20
4374;DHT22;2201;51.100;6.814;2022-08-01T04:39:00;21.20;98.20
4374;DHT22;2201;51.100;6.814;2022-08-01T04:41:30;21.20;98.20
4374;DHT22;2201;51.100;6.814;2022-08-01T04:43:58;21.30;98.20
4374;DHT22;2201;51.100;6.814;2022-08-01T04:46:26;21.30;98.20
4374;DHT22;2201;51.100;6.814;2022-08-01T04:48:54;21.30;98.20
4374;DHT22;2201;51.100;6.814;2022-08-01T04:51:22;21.30;98.20
4374;DHT22;2201;51.100;6.814;2022-08-01T04:53:50;21.30;98.20
4374;DHT22;2201;51.100;6.814;2022-08-01T04:56:17;21.30;98.20
4374;DHT22;2201;51.100;6.814;2022-08-01T04:58:47;21.30;98.20
4374;DHT22;2201;51.100;6.814;2022-08-01T05:01:35;21.30;98.20
4374;DHT22;2201;51.100;6.814;2022-08-01T05:04:02;21.30;98.20
4374;DHT22;2201;51.100;6.814;2022-08-01T05:06:29;21.30;98.20
4374;DHT22;2201;51.100;6.814;2022-08-01T05:08:56;21.30;98.20
4374;DHT22;2201;51.100;6.814;2022-08-01T05:11:23;21.30;98.20
4374;DHT22;2201;51.100;6.814;2022-08-01T05:13:50;21.30;98.20
4374;DHT22;2201;51.100;6.814;2022-08-01T05:16:18;21.30;98.20
4374;DHT22;2201;51.100;6.814;2022-08-01T05:18:46;21.30;98.20
4374;DHT22;2201;51.100;6.814;2022-08-01T05:21:13;21.30;98.20
4374;DHT22;2201;51.100;6.814;2022-08-01T05:23:40;21.30;98.20
4374;DHT22;2201;51.100;6.814;2022-08-01T05:26:08;21.40;98.20
4374;DHT22;2201;51.100;6.814;2022-08-01T05:28:35;21.40;98.20
4374;DHT22;2201;51.100;6.814;2022-08-01T05:31:02;21.40;98.20
4374;DHT22;2201;51.100;6.814;2022-08-01T05:33:29;21.40;98.20
4374;DHT22;2201;51.100;6.814;2022-08-01T05:35:58;21.40;98.20
4374;DHT22;2201;51.100;6.814;2022-08-01T05:38:25;21.50;98.20
4374;DHT22;2201;51.100;6.814;2022-08-01T05:40:51;21.40;98.20
4374;DHT22;2201;51.100;6.814;2022-08-01T05:43:18;21.40;98.20
4374;DHT22;2201;51.100;6.814;2022-08-01T05:45:46;21.40;98.20
4374;DHT22;2201;51.100;6.814;2022-08-01T05:48:13;21.50;98.20
4374;DHT22;2201;51.100;6.814;2022-08-01T05:50:40;21.50;98.20
4374;DHT22;2201;51.100;6.814;2022-08-01T05:53:09;21.60;98.20
4374;DHT22;2201;51.100;6.814;2022-08-01T05:55:35;21.60;98.20
4374;DHT22;2201;51.100;6.814;2022-08-01T05:58:02;21.70;98.20
4374;DHT22;2201;51.100;6.814;2022-08-01T06:00:29;21.80;98.20
4374;DHT22;2201;51.100;6.814;2022-08-01T06:02:56;21.80;98.20
4374;DHT22;2201;51.100;6.814;2022-08-01T06:05:23;21.90;98.20
4374;DHT22;2201;51.100;6.814;2022-08-01T06:07:50;22.00;98.20
4374;DHT22;2201;51.100;6.814;2022-08-01T06:10:19;22.00;98.20
4374;DHT22;2201;51.100;6.814;2022-08-01T06:12:46;22.10;98.20
4374;DHT22;2201;51.100;6.814;2022-08-01T06:15:13;22.20;98.20
4374;DHT22;2201;51.100;6.814;2022-08-01T06:17:40;22.30;98.20
4374;DHT22;2201;51.100;6.814;2022-08-01T06:20:08;22.40;98.20
4374;DHT22;2201;51.100;6.814;2022-08-01T06:22:35;22.40;98.20
4374;DHT22;2201;51.100;6.814;2022-08-01T06:25:03;22.40;98.20
4374;DHT22;2201;51.100;6.814;2022-08-01T06:27:33;22.50;98.20
4374;DHT22;2201;51.100;6.814;2022-08-01T06:30:01;22.70;98.20
4374;DHT22;2201;51.100;6.814;2022-08-01T06:32:27;22.90;98.20
4374;DHT22;2201;51.100;6.814;2022-08-01T06:34:55;23.00;98.20
4374;DHT22;2201;51.100;6.814;2022-08-01T06:37:22;23.10;98.20
4374;DHT22;2201;51.100;6.814;2022-08-01T06:39:49;23.20;98.20
4374;DHT22;2201;51.100;6.814;2022-08-01T06:42:16;23.20;98.20
4374;DHT22;2201;51.100;6.814;2022-08-01T06:44:45;23.20;98.20
4374;DHT22;2201;51.100;6.814;2022-08-01T06:47:12;23.10;98.20
4374;DHT22;2201;51.100;6.814;2022-08-01T06:49:39;23.10;98.20
4374;DHT22;2201;51.100;6.814;2022-08-01T06:52:06;23.20;98.20
4374;DHT22;2201;51.100;6.814;2022-08-01T06:54:33;23.30;98.20
4374;DHT22;2201;51.100;6.814;2022-08-01T06:57:00;23.30;98.20
4374;DHT22;2201;51.100;6.814;2022-08-01T06:59:27;23.30;98.20
4374;DHT22;2201;51.100;6.814;2022-08-01T07:01:55;23.30;98.20
4374;DHT22;2201;51.100;6.814;2022-08-01T07:04:22;23.40;98.20
4374;DHT22;2201;51.100;6.814;2022-08-01T07:06:49;23.30;98.20
4374;DHT22;2201;51.100;6.814;2022-08-01T07:09:16;23.30;98.20
4374;DHT22;2201;51.100;6.814;2022-08-01T07:11:43;23.20;98.20
4374;DHT22;2201;51.100;6.814;2022-08-01T07:14:10;23.10;98.20
4374;DHT22;2201;51.100;6.814;2022-08-01T07:16:37;23.10;98.20
4374;DHT22;2201;51.100;6.814;2022-08-01T07:19:05;23.20;98.20
4374;DHT22;2201;51.100;6.814;2022-08-01T07:21:32;23.40;98.20
4374;DHT22;2201;51.100;6.814;2022-08-01T07:24:00;23.40;98.20
4374;DHT22;2201;51.100;6.814;2022-08-01T07:26:27;23.50;98.20
4374;DHT22;2201;51.100;6.814;2022-08-01T07:28:55;23.70;98.20
4374;DHT22;2201;51.100;6.814;2022-08-01T07:31:22;24.00;98.20
4374;DHT22;2201;51.100;6.814;2022-08-01T07:33:49;24.20;98.20
4374;DHT22;2201;51.100;6.814;2022-08-01T07:36:18;24.30;97.50
4374;DHT22;2201;51.100;6.814;2022-08-01T07:38:45;24.50;98.20
4374;DHT22;2201;51.100;6.814;2022-08-01T07:41:13;24.80;97.50
4374;DHT22;2201;51.100;6.814;2022-08-01T07:43:40;25.10;95.80
4374;DHT22;2201;51.100;6.814;2022-08-01T07:46:09;25.30;95.60
4374;DHT22;2201;51.100;6.814;2022-08-01T07:48:36;25.40;94.40
4374;DHT22;2201;51.100;6.814;2022-08-01T07:51:03;25.60;94.40
4374;DHT22;2201;51.100;6.814;2022-08-01T07:53:31;25.70;94.00
4374;DHT22;2201;51.100;6.814;2022-08-01T07:55:58;25.70;92.90
4374;DHT22;2201;51.100;6.814;2022-08-01T07:58:25;25.80;93.80
4374;DHT22;2201;51.100;6.814;2022-08-01T08:00:52;25.90;93.00
4374;DHT22;2201;51.100;6.814;2022-08-01T08:03:19;25.90;91.50
4374;DHT22;2201;51.100;6.814;2022-08-01T08:05:46;25.90;92.00
4374;DHT22;2201;51.100;6.814;2022-08-01T08:08:13;25.90;91.10
4374;DHT22;2201;51.100;6.814;2022-08-01T08:10:44;25.80;91.30
4374;DHT22;2201;51.100;6.814;2022-08-01T08:13:11;25.80;91.90
4374;DHT22;2201;51.100;6.814;2022-08-01T08:15:37;25.60;92.20
4374;DHT22;2201;51.100;6.814;2022-08-01T08:18:05;25.50;92.60
4374;DHT22;2201;51.100;6.814;2022-08-01T08:20:32;25.70;92.80
4374;DHT22;2201;51.100;6.814;2022-08-01T08:23:00;25.80;92.30
4374;DHT22;2201;51.100;6.814;2022-08-01T08:25:27;25.90;92.20
4374;DHT22;2201;51.100;6.814;2022-08-01T08:27:55;25.90;91.40
4374;DHT22;2201;51.100;6.814;2022-08-01T08:30:22;25.90;91.50
4374;DHT22;2201;51.100;6.814;2022-08-01T08:32:49;25.90;90.40
4374;DHT22;2201;51.100;6.814;2022-08-01T08:35:16;25.90;90.30
4374;DHT22;2201;51.100;6.814;2022-08-01T08:37:49;25.90;90.40
4374;DHT22;2201;51.100;6.814;2022-08-01T08:40:39;25.90;89.40
4374;DHT22;2201;51.100;6.814;2022-08-01T08:43:15;26.00;90.10
4374;DHT22;2201;51.100;6.814;2022-08-01T08:45:43;26.20;90.80
4374;DHT22;2201;51.100;6.814;2022-08-01T08:48:11;26.40;89.30
4374;DHT22;2201;51.100;6.814;2022-08-01T08:50:40;26.60;89.70
4374;DHT22;2201;51.100;6.814;2022-08-01T08:53:09;26.80;88.70
4374;DHT22;2201;51.100;6.814;2022-08-01T08:55:36;27.00;88.10
4374;DHT22;2201;51.100;6.814;2022-08-01T08:58:04;27.30;87.90
4374;DHT22;2201;51.100;6.814;2022-08-01T09:00:33;27.50;86.40
4374;DHT22;2201;51.100;6.814;2022-08-01T09:03:01;27.60;85.80
4374;DHT22;2201;51.100;6.814;2022-08-01T09:05:28;27.30;86.60
4374;DHT22;2201;51.100;6.814;2022-08-01T09:07:55;27.20;86.60
4374;DHT22;2201;51.100;6.814;2022-08-01T09:10:22;27.00;86.00
4374;DHT22;2201;51.100;6.814;2022-08-01T09:13:06;26.90;86.40
4374;DHT22;2201;51.100;6.814;2022-08-01T09:15:42;26.90;88.00
4374;DHT22;2201;51.100;6.814;2022-08-01T09:18:29;26.90;86.80
4374;DHT22;2201;51.100;6.814;2022-08-01T09:21:08;26.70;87.40
4374;DHT22;2201;51.100;6.814;2022-08-01T09:23:37;26.50;87.90
4374;DHT22;2201;51.100;6.814;2022-08-01T09:26:07;26.40;88.40
4374;DHT22;2201;51.100;6.814;2022-08-01T09:28:35;26.30;88.40
4374;DHT22;2201;51.100;6.814;2022-08-01T09:31:09;26.30;88.10
4374;DHT22;2201;51.100;6.814;2022-08-01T09:33:58;26.30;87.80
4374;DHT22;2201;51.100;6.814;2022-08-01T09:36:42;26.40;87.60
4374;DHT22;2201;51.100;6.814;2022-08-01T09:39:12;26.40;87.70
4374;DHT22;2201;51.100;6.814;2022-08-01T09:41:41;26.40;88.30
4374;DHT22;2201;51.100;6.814;2022-08-01T09:44:08;26.70;87.40
4374;DHT22;2201;51.100;6.814;2022-08-01T09:46:49;26.80;86.70
4374;DHT22;2201;51.100;6.814;2022-08-01T09:49:27;27.00;86.00
4374;DHT22;2201;51.100;6.814;2022-08-01T09:51:54;27.10;85.90
4374;DHT22;2201;51.100;6.814;2022-08-01T09:54:29;27.20;86.20
4374;DHT22;2201;51.100;6.814;2022-08-01T09:57:08;27.20;85.20
4374;DHT22;2201;51.100;6.814;2022-08-01T09:59:37;27.10;85.70
4374;DHT22;2201;51.100;6.814;2022-08-01T10:02:28;27.10;85.20
4374;DHT22;2201;51.100;6.814;2022-08-01T10:04:56;27.20;86.30
4374;DHT22;2201;51.100;6.814;2022-08-01T10:07:23;27.30;84.40
4374;DHT22;2201;51.100;6.814;2022-08-01T10:09:50;27.30;85.20
4374;DHT22;2201;51.100;6.814;2022-08-01T10:12:20;27.40;85.00
4374;DHT22;2201;51.100;6.814;2022-08-01T10:14:50;27.60;85.40
4374;DHT22;2201;51.100;6.814;2022-08-01T10:17:24;27.70;84.60
4374;DHT22;2201;51.100;6.814;2022-08-01T10:19:52;27.90;84.40
4374;DHT22;2201;51.100;6.814;2022-08-01T10:22:23;28.20;83.30
4374;DHT22;2201;51.100;6.814;2022-08-01T10:24:55;28.50;82.90
4374;DHT22;2201;51.100;6.814;2022-08-01T10:27:23;28.60;81.40
4374;DHT22;2201;51.100;6.814;2022-08-01T10:29:54;28.70;81.70
4374;DHT22;2201;51.100;6.814;2022-08-01T10:32:23;28.70;80.50
4374;DHT22;2201;51.100;6.814;2022-08-01T10:34:51;28.80;81.00
4374;DHT22;2201;51.100;6.814;2022-08-01T10:37:18;28.80;80.60
4374;DHT22;2201;51.100;6.814;2022-08-01T10:39:46;28.80;80.20
4374;DHT22;2201;51.100;6.814;2022-08-01T10:42:13;28.80;80.00
4374;DHT22;2201;51.100;6.814;2022-08-01T10:44:40;28.70;79.10
4374;DHT22;2201;51.100;6.814;2022-08-01T10:47:09;28.30;78.70
4374;DHT22;2201;51.100;6.814;2022-08-01T10:49:43;28.00;80.50
4374;DHT22;2201;51.100;6.814;2022-08-01T10:52:15;27.90;80.60
4374;DHT22;2201;51.100;6.814;2022-08-01T10:54:42;27.90;80.90
4374;DHT22;2201;51.100;6.814;2022-08-01T10:57:09;28.00;82.60
4374;DHT22;2201;51.100;6.814;2022-08-01T10:59:48;28.10;81.10
4374;DHT22;2201;51.100;6.814;2022-08-01T11:02:26;28.20;81.10
4374;DHT22;2201;51.100;6.814;2022-08-01T11:04:57;28.40;80.10
4374;DHT22;2201;51.100;6.814;2022-08-01T11:07:42;28.60;80.90
4374;DHT22;2201;51.100;6.814;2022-08-01T11:10:19;29.10;78.20
4374;DHT22;2201;51.100;6.814;2022-08-01T11:12:50;29.60;75.70
4374;DHT22;2201;51.100;6.814;2022-08-01T11:15:24;29.80;74.50
4374;DHT22;2201;51.100;6.814;2022-08-01T11:17:53;29.90;73.80
4374;DHT22;2201;51.100;6.814;2022-08-01T11:20:28;29.80;74.30
4374;DHT22;2201;51.100;6.814;2022-08-01T11:23:24;29.60;76.20
4374;DHT22;2201;51.100;6.814;2022-08-01T11:26:11;29.10;77.60
4374;DHT22;2201;51.100;6.814;2022-08-01T11:28:38;28.60;78.20
4374;DHT22;2201;51.100;6.814;2022-08-01T11:31:29;28.30;78.30
4374;DHT22;2201;51.100;6.814;2022-08-01T11:33:56;28.10;77.40
4374;DHT22;2201;51.100;6.814;2022-08-01T11:36:25;27.90;79.00
4374;DHT22;2201;51.100;6.814;2022-08-01T11:39:16;27.80;78.40
4374;DHT22;2201;51.100;6.814;2022-08-01T11:41:46;27.80;78.90
4374;DHT22;2201;51.100;6.814;2022-08-01T11:44:16;28.00;79.20
4374;DHT22;2201;51.100;6.814;2022-08-01T11:46:58;28.20;77.40
4374;DHT22;2201;51.100;6.814;2022-08-01T11:49:31;28.50;76.50
4374;DHT22;2201;51.100;6.814;2022-08-01T11:52:06;28.60;76.80
4374;DHT22;2201;51.100;6.814;2022-08-01T11:54:38;28.70;76.50
4374;DHT22;2201;51.100;6.814;2022-08-01T11:57:06;28.90;78.60
4374;DHT22;2201;51.100;6.814;2022-08-01T11:59:40;29.00;76.80
4374;DHT22;2201;51.100;6.814;2022-08-01T12:02:19;29.10;76.80
4374;DHT22;2201;51.100;6.814;2022-08-01T12:04:51;29.10;75.60
4374;DHT22;2201;51.100;6.814;2022-08-01T12:07:22;28.90;74.90
4374;DHT22;2201;51.100;6.814;2022-08-01T12:09:57;29.10;75.80
4374;DHT22;2201;51.100;6.814;2022-08-01T12:12:25;29.30;76.80
4374;DHT22;2201;51.100;6.814;2022-08-01T12:14:57;29.70;75.60
4374;DHT22;2201;51.100;6.814;2022-08-01T12:17:33;29.80;75.40
4374;DHT22;2201;51.100;6.814;2022-08-01T12:20:01;29.90;74.20
4374;DHT22;2201;51.100;6.814;2022-08-01T12:22:30;29.90;71.70
4374;DHT22;2201;51.100;6.814;2022-08-01T12:25:08;29.90;71.60
4374;DHT22;2201;51.100;6.814;2022-08-01T12:27:37;29.70;72.10
4374;DHT22;2201;51.100;6.814;2022-08-01T12:30:11;29.60;71.90
4374;DHT22;2201;51.100;6.814;2022-08-01T12:32:39;29.90;69.40
4374;DHT22;2201;51.100;6.814;2022-08-01T12:35:08;30.20;69.70
4374;DHT22;2201;51.100;6.814;2022-08-01T12:37:39;30.40;68.40
4374;DHT22;2201;51.100;6.814;2022-08-01T12:40:12;30.60;67.80
4374;DHT22;2201;51.100;6.814;2022-08-01T12:42:41;30.80;67.90
4374;DHT22;2201;51.100;6.814;2022-08-01T12:45:10;31.00;68.20
4374;DHT22;2201;51.100;6.814;2022-08-01T12:47:38;31.40;67.30
4374;DHT22;2201;51.100;6.814;2022-08-01T12:50:08;31.70;66.20
4374;DHT22;2201;51.100;6.814;2022-08-01T12:52:39;31.80;64.60
4374;DHT22;2201;51.100;6.814;2022-08-01T12:55:09;31.70;66.30
4374;DHT22;2201;51.100;6.814;2022-08-01T12:57:39;31.60;65.70
4374;DHT22;2201;51.100;6.814;2022-08-01T13:00:15;31.40;65.40
4374;DHT22;2201;51.100;6.814;2022-08-01T13:02:43;31.30;65.80
4374;DHT22;2201;51.100;6.814;2022-08-01T13:05:11;31.10;66.30
4374;DHT22;2201;51.100;6.814;2022-08-01T13:07:46;31.10;66.40
4374;DHT22;2201;51.100;6.814;2022-08-01T13:10:14;31.10;67.30
4374;DHT22;2201;51.100;6.814;2022-08-01T13:12:51;31.00;67.50
4374;DHT22;2201;51.100;6.814;2022-08-01T13:15:25;30.80;65.90
4374;DHT22;2201;51.100;6.814;2022-08-01T13:17:53;30.50;66.30
4374;DHT22;2201;51.100;6.814;2022-08-01T13:20:23;30.20;67.30
4374;DHT22;2201;51.100;6.814;2022-08-01T13:22:52;30.10;68.30
4374;DHT22;2201;51.100;6.814;2022-08-01T13:25:19;30.00;67.80
4374;DHT22;2201;51.100;6.814;2022-08-01T13:27:46;29.90;68.80
4374;DHT22;2201;51.100;6.814;2022-08-01T13:30:15;29.90;68.00
4374;DHT22;2201;51.100;6.814;2022-08-01T13:32:57;29.80;68.40
4374;DHT22;2201;51.100;6.814;2022-08-01T13:35:26;29.80;68.70
4374;DHT22;2201;51.100;6.814;2022-08-01T13:37:55;30.00;68.60
4374;DHT22;2201;51.100;6.814;2022-08-01T13:40:24;29.90;68.60
4374;DHT22;2201;51.100;6.814;2022-08-01T13:42:52;29.90;67.30
4374;DHT22;2201;51.100;6.814;2022-08-01T13:45:20;30.00;68.60
4374;DHT22;2201;51.100;6.814;2022-08-01T13:47:47;30.20;69.00
4374;DHT22;2201;51.100;6.814;2022-08-01T13:50:14;30.40;68.40
4374;DHT22;2201;51.100;6.814;2022-08-01T13:52:41;30.60;70.50
4374;DHT22;2201;51.100;6.814;2022-08-01T13:55:09;30.70;70.50
4374;DHT22;2201;51.100;6.814;2022-08-01T13:57:37;30.70;70.70
4374;DHT22;2201;51.100;6.814;2022-08-01T14:00:06;30.70;70.00
4374;DHT22;2201;51.100;6.814;2022-08-01T14:02:34;30.70;69.80
4374;DHT22;2201;51.100;6.814;2022-08-01T14:05:01;30.50;69.50
4374;DHT22;2201;51.100;6.814;2022-08-01T14:07:28;30.30;69.00
4374;DHT22;2201;51.100;6.814;2022-08-01T14:09:55;29.90;69.80
4374;DHT22;2201;51.100;6.814;2022-08-01T14:12:24;30.00;71.00
4374;DHT22;2201;51.100;6.814;2022-08-01T14:14:51;29.90;69.20
4374;DHT22;2201;51.100;6.814;2022-08-01T14:17:18;29.80;70.10
4374;DHT22;2201;51.100;6.814;2022-08-01T14:19:45;30.00;69.60
4374;DHT22;2201;51.100;6.814;2022-08-01T14:22:12;30.00;69.50
4374;DHT22;2201;51.100;6.814;2022-08-01T14:24:39;30.00;69.70
4374;DHT22;2201;51.100;6.814;2022-08-01T14:27:06;30.00;69.50
4374;DHT22;2201;51.100;6.814;2022-08-01T14:29:35;29.90;69.90
4374;DHT22;2201;51.100;6.814;2022-08-01T14:32:02;29.80;69.80
4374;DHT22;2201;51.100;6.814;2022-08-01T14:34:29;29.70;71.30
4374;DHT22;2201;51.100;6.814;2022-08-01T14:36:57;29.60;72.00
4374;DHT22;2201;51.100;6.814;2022-08-01T14:39:24;29.50;72.90
4374;DHT22;2201;51.100;6.814;2022-08-01T14:41:51;29.50;72.40
4374;DHT22;2201;51.100;6.814;2022-08-01T14:44:18;29.40;72.30
4374;DHT22;2201;51.100;6.814;2022-08-01T14:46:47;29.10;73.20
4374;DHT22;2201;51.100;6.814;2022-08-01T14:49:15;29.00;73.70
4374;DHT22;2201;51.100;6.814;2022-08-01T14:51:45;28.90;74.40
4374;DHT22;2201;51.100;6.814;2022-08-01T14:54:14;28.70;74.70
4374;DHT22;2201;51.100;6.814;2022-08-01T14:56:41;28.50;74.70
4374;DHT22;2201;51.100;6.814;2022-08-01T14:59:08;28.60;74.70
4374;DHT22;2201;51.100;6.814;2022-08-01T15:01:35;28.70;73.70
4374;DHT22;2201;51.100;6.814;2022-08-01T15:04:04;28.70;74.30
4374;DHT22;2201;51.100;6.814;2022-08-01T15:06:31;28.80;74.10
4374;DHT22;2201;51.100;6.814;2022-08-01T15:08:59;28.90;74.50
4374;DHT22;2201;51.100;6.814;2022-08-01T15:11:26;28.90;73.80
4374;DHT22;2201;51.100;6.814;2022-08-01T15:13:53;28.90;73.10
4374;DHT22;2201;51.100;6.814;2022-08-01T15:16:34;28.90;73.50
4374;DHT22;2201;51.100;6.814;2022-08-01T15:19:01;28.90;73.80
4374;DHT22;2201;51.100;6.814;2022-08-01T15:21:30;28.80;73.50
4374;DHT22;2201;51.100;6.814;2022-08-01T15:23:57;28.90;73.80
4374;DHT22;2201;51.100;6.814;2022-08-01T15:26:25;28.90;73.80
4374;DHT22;2201;51.100;6.814;2022-08-01T15:28:58;29.00;73.80
4374;DHT22;2201;51.100;6.814;2022-08-01T15:31:26;29.10;73.10
4374;DHT22;2201;51.100;6.814;2022-08-01T15:33:54;29.30;73.20
4374;DHT22;2201;51.100;6.814;2022-08-01T15:36:22;29.40;72.60
4374;DHT22;2201;51.100;6.814;2022-08-01T15:39:07;29.50;72.90
4374;DHT22;2201;51.100;6.814;2022-08-01T15:41:39;29.50;71.90
4374;DHT22;2201;51.100;6.814;2022-08-01T15:44:08;29.40;71.60
4374;DHT22;2201;51.100;6.814;2022-08-01T15:46:38;29.30;72.10
4374;DHT22;2201;51.100;6.814;2022-08-01T16:15:41;28.70;74.50
4374;DHT22;2201;51.100;6.814;2022-08-01T16:18:10;28.60;74.70
4374;DHT22;2201;51.100;6.814;2022-08-01T16:37:28;27.60;77.20
4374;DHT22;2201;51.100;6.814;2022-08-01T16:51:10;27.80;77.00
4374;DHT22;2201;51.100;6.814;2022-08-01T17:45:52;27.50;73.80
4374;DHT22;2201;51.100;6.814;2022-08-01T17:48:33;27.40;73.30
4374;DHT22;2201;51.100;6.814;2022-08-01T17:51:00;27.30;75.00
4374;DHT22;2201;51.100;6.814;2022-08-01T17:53:31;27.10;75.90
4374;DHT22;2201;51.100;6.814;2022-08-01T17:55:58;26.90;74.20
4374;DHT22;2201;51.100;6.814;2022-08-01T17:58:27;26.60;75.00
4374;DHT22;2201;51.100;6.814;2022-08-01T18:01:01;26.40;75.70
4374;DHT22;2201;51.100;6.814;2022-08-01T18:03:30;26.40;75.80
4374;DHT22;2201;51.100;6.814;2022-08-01T18:06:00;26.30;75.70